Terminal Aerodrome Forecast
Issued by NWS

Home | Current Version | Previous Version | Text Only | Print | Product List | Glossary On
Versions: 1 2 3 4 5 6 7 8 9 10 11 12
000
FTUS42 TJSJ 261736
TAFJBQ
TAF
TJBQ 261736Z 2618/2718 09019G26KT P6SM VCSH SCT021 SCT035
     FM262330 10010KT P6SM FEW060
     FM271400 08013KT P6SM SCT025
      AMD NOT SKED 2702/2711=

USA.gov is the U.S. government's official web portal to all federal, state and local government web resources and services.